createdAt,value
2022-12-16T00:01:25.872Z,80.78
2022-12-16T00:03:55.524Z,80.94
2022-12-16T00:06:25.089Z,80.87
2022-12-16T00:08:54.988Z,80.88
2022-12-16T00:11:23.367Z,80.60
2022-12-16T00:13:51.470Z,80.55
2022-12-16T00:16:21.818Z,81.18
2022-12-16T00:18:57.840Z,80.95
2022-12-16T00:21:30.489Z,81.34
2022-12-16T00:24:09.154Z,80.91
2022-12-16T00:26:37.104Z,80.86
2022-12-16T00:29:06.737Z,81.45
2022-12-16T00:32:00.288Z,81.02
2022-12-16T00:34:28.179Z,80.99
2022-12-16T00:36:56.407Z,81.01
2022-12-16T00:39:27.273Z,80.61
2022-12-16T00:41:55.335Z,81.08
2022-12-16T00:44:23.393Z,81.07
2022-12-16T00:46:59.104Z,80.90
2022-12-16T00:49:33.332Z,81.06
2022-12-16T00:52:01.152Z,80.99
2022-12-16T00:54:30.317Z,81.44
2022-12-16T00:57:00.004Z,81.45
2022-12-16T00:59:27.898Z,81.28
2022-12-16T01:01:56.151Z,80.79
2022-12-16T01:04:26.616Z,81.41
2022-12-16T01:07:01.487Z,81.27
2022-12-16T01:09:30.680Z,81.25
2022-12-16T01:11:58.770Z,81.00
2022-12-16T01:14:40.226Z,81.26
2022-12-16T01:17:08.245Z,81.26
2022-12-16T01:19:36.297Z,81.06
2022-12-16T01:22:04.354Z,81.29
2022-12-16T01:24:42.952Z,80.94
2022-12-16T01:27:10.730Z,80.67
2022-12-16T01:29:41.704Z,81.10
2022-12-16T01:32:14.890Z,80.69
2022-12-16T01:34:42.940Z,80.74
2022-12-16T01:37:12.405Z,81.43
2022-12-16T01:39:44.717Z,80.88
2022-12-16T01:42:22.541Z,81.14
2022-12-16T01:44:54.995Z,80.91
2022-12-16T01:47:27.681Z,80.62
2022-12-16T01:50:00.249Z,80.71
2022-12-16T01:52:33.938Z,80.93
2022-12-16T01:55:19.726Z,81.07
2022-12-16T01:57:56.181Z,81.19
2022-12-16T02:00:24.341Z,80.67
2022-12-16T02:02:59.534Z,81.15
2022-12-16T02:05:27.887Z,80.92
2022-12-16T02:08:00.800Z,80.33
2022-12-16T02:10:51.108Z,80.25
2022-12-16T02:13:28.458Z,80.34
2022-12-16T02:16:06.742Z,80.70
2022-12-16T02:18:47.305Z,80.53
2022-12-16T02:21:44.763Z,80.19
2022-12-16T02:25:14.422Z,80.23
2022-12-16T02:28:02.175Z,80.16
2022-12-16T02:30:45.649Z,80.12
2022-12-16T02:33:32.984Z,80.66
2022-12-16T02:36:06.501Z,80.05
2022-12-16T02:38:46.184Z,80.49
2022-12-16T02:41:23.161Z,80.34
2022-12-16T02:43:57.695Z,79.95
2022-12-16T02:46:30.098Z,80.47
2022-12-16T02:48:58.483Z,80.64
2022-12-16T02:51:33.635Z,80.66
2022-12-16T02:54:28.105Z,80.57
2022-12-16T02:57:10.820Z,80.13
2022-12-16T02:59:57.104Z,80.53
2022-12-16T03:02:36.324Z,80.48
2022-12-16T03:05:10.987Z,80.07
2022-12-16T03:07:41.399Z,79.88
2022-12-16T03:10:28.862Z,80.22
2022-12-16T03:13:00.498Z,80.71
2022-12-16T03:15:32.141Z,80.68
2022-12-16T03:18:06.587Z,80.80
2022-12-16T03:20:45.615Z,80.18
2022-12-16T03:23:24.152Z,80.55
2022-12-16T03:25:57.435Z,80.68
2022-12-16T03:28:43.917Z,80.92
2022-12-16T03:31:20.524Z,80.89
2022-12-16T03:33:56.970Z,81.29
2022-12-16T03:36:27.879Z,80.88
2022-12-16T03:38:58.209Z,80.62
2022-12-16T03:41:27.828Z,80.98
2022-12-16T03:43:55.914Z,81.19
2022-12-16T03:46:26.832Z,81.08
2022-12-16T03:48:56.285Z,81.34
2022-12-16T03:51:24.398Z,81.30
2022-12-16T03:53:52.132Z,81.09
2022-12-16T03:56:20.042Z,81.12
2022-12-16T03:58:48.018Z,80.55
2022-12-16T04:01:22.761Z,81.03
2022-12-16T04:03:54.848Z,81.12
2022-12-16T04:06:25.774Z,81.70
2022-12-16T04:08:53.886Z,81.70
2022-12-16T04:11:39.781Z,81.77
2022-12-16T04:14:26.604Z,81.47
2022-12-16T04:17:12.316Z,81.29
2022-12-16T04:19:58.520Z,81.69
2022-12-16T04:22:56.343Z,81.53
2022-12-16T04:25:28.590Z,81.36
2022-12-16T04:27:59.821Z,81.96
2022-12-16T04:30:35.088Z,81.46
2022-12-16T04:33:29.514Z,81.82
2022-12-16T04:36:15.841Z,81.54
2022-12-16T04:39:18.163Z,81.63
2022-12-16T04:42:03.368Z,81.80
2022-12-16T04:44:54.111Z,82.23
2022-12-16T04:47:39.880Z,81.88
2022-12-16T04:50:25.965Z,81.59
2022-12-16T04:53:12.839Z,81.85
2022-12-16T04:56:04.110Z,82.18
2022-12-16T04:58:52.098Z,81.88
2022-12-16T05:01:40.293Z,82.21
2022-12-16T05:04:25.692Z,81.62
2022-12-16T05:07:11.010Z,81.55
2022-12-16T05:09:58.797Z,81.86
2022-12-16T05:13:01.816Z,81.92
2022-12-16T05:15:50.315Z,81.89
2022-12-16T05:18:36.830Z,81.75
2022-12-16T05:21:27.015Z,81.38
2022-12-16T05:24:12.183Z,81.55
2022-12-16T05:26:57.531Z,81.94
2022-12-16T05:29:46.848Z,81.77
2022-12-16T05:32:35.155Z,82.06
2022-12-16T05:35:20.726Z,81.26
2022-12-16T05:38:05.904Z,81.62
2022-12-16T05:40:51.456Z,81.64
2022-12-16T05:43:48.814Z,81.76
2022-12-16T05:46:39.589Z,81.72
2022-12-16T05:49:25.589Z,81.47
2022-12-16T05:52:10.869Z,82.12
2022-12-16T05:54:56.197Z,81.31
2022-12-16T05:57:41.649Z,81.76
2022-12-16T06:00:31.488Z,80.75
2022-12-16T06:03:18.524Z,81.24
2022-12-16T06:06:03.793Z,81.19
2022-12-16T06:08:49.905Z,81.12
2022-12-16T06:11:43.866Z,81.54
2022-12-16T06:14:31.909Z,81.04
2022-12-16T06:17:53.982Z,80.74
2022-12-16T06:20:45.916Z,81.26
2022-12-16T06:23:31.847Z,81.04
2022-12-16T06:26:17.176Z,81.42
2022-12-16T06:29:02.905Z,82.29
2022-12-16T06:31:50.528Z,82.23
2022-12-16T06:34:39.069Z,81.92
2022-12-16T06:37:33.913Z,81.66
2022-12-16T06:40:19.854Z,82.32
2022-12-16T06:43:07.902Z,82.59
2022-12-16T06:45:54.068Z,83.11
2022-12-16T06:48:39.268Z,82.54
2022-12-16T06:51:33.586Z,83.03
2022-12-16T06:54:22.880Z,81.87
2022-12-16T06:57:08.125Z,81.91
2022-12-16T07:00:06.214Z,82.46
2022-12-16T07:02:52.449Z,82.65
2022-12-16T07:05:41.008Z,82.31
2022-12-16T07:08:28.199Z,81.68
2022-12-16T07:11:25.489Z,82.62
2022-12-16T07:14:10.768Z,83.11
2022-12-16T07:16:56.070Z,83.29
2022-12-16T07:19:41.272Z,82.70
2022-12-16T07:22:26.654Z,83.18
2022-12-16T07:25:27.275Z,82.58
2022-12-16T07:28:15.641Z,81.49
2022-12-16T07:31:08.679Z,81.42
2022-12-16T07:33:54.089Z,81.28
2022-12-16T07:36:39.593Z,81.04
2022-12-16T07:39:27.809Z,81.05
2022-12-16T07:42:15.909Z,80.58
2022-12-16T07:45:07.903Z,79.86
2022-12-16T07:47:55.867Z,79.84
2022-12-16T07:50:41.123Z,79.52
2022-12-16T07:53:52.788Z,79.23
2022-12-16T07:56:47.383Z,79.34
2022-12-16T07:59:32.799Z,79.12
2022-12-16T08:02:22.812Z,79.19
2022-12-16T08:05:04.610Z,79.65
2022-12-16T08:07:50.096Z,79.33
2022-12-16T08:10:35.868Z,79.28
2022-12-16T08:13:26.146Z,79.33
2022-12-16T08:19:19.585Z,78.60
2022-12-16T08:22:04.797Z,78.64
2022-12-16T08:28:02.860Z,78.98
2022-12-16T08:30:49.947Z,79.12
2022-12-16T08:33:48.573Z,78.69
2022-12-16T08:36:35.222Z,78.56
2022-12-16T08:39:23.750Z,78.66
2022-12-16T08:42:12.026Z,78.72
2022-12-16T08:44:57.979Z,78.06
2022-12-16T08:47:45.263Z,78.05
2022-12-16T08:50:31.769Z,77.48
2022-12-16T08:53:28.037Z,78.16
2022-12-16T08:56:13.314Z,78.11
2022-12-16T08:59:03.998Z,77.87
2022-12-16T09:01:51.118Z,77.65
2022-12-16T09:04:50.137Z,77.25
2022-12-16T09:07:40.291Z,77.48
2022-12-16T09:10:27.260Z,77.48
2022-12-16T09:13:12.726Z,77.48
2022-12-16T09:16:03.936Z,77.18
2022-12-16T09:18:49.159Z,77.33
2022-12-16T09:21:34.480Z,77.23
2022-12-16T09:24:27.252Z,77.12
2022-12-16T09:27:16.077Z,77.08
2022-12-16T09:30:01.493Z,77.09
2022-12-16T09:35:50.176Z,77.75
2022-12-16T09:38:36.798Z,77.50
2022-12-16T09:41:49.453Z,76.96
2022-12-16T09:44:52.807Z,77.16
2022-12-16T09:47:49.974Z,76.67
2022-12-16T09:50:40.920Z,77.22
2022-12-16T09:53:31.184Z,77.00
2022-12-16T09:56:17.147Z,77.53
2022-12-16T09:59:11.001Z,77.83
2022-12-16T10:02:00.341Z,77.49
2022-12-16T10:04:51.181Z,77.46
2022-12-16T10:07:45.670Z,77.90
2022-12-16T10:10:47.912Z,77.58
2022-12-16T10:13:50.042Z,77.25
2022-12-16T10:16:47.508Z,76.87
2022-12-16T10:19:50.391Z,77.43
2022-12-16T10:22:51.568Z,77.28
2022-12-16T10:25:44.983Z,77.10
2022-12-16T10:28:35.612Z,76.89
2022-12-16T10:31:37.183Z,76.66
2022-12-16T10:34:30.524Z,76.90
2022-12-16T10:37:29.917Z,76.80
2022-12-16T10:40:26.024Z,77.40
2022-12-16T10:43:22.690Z,77.86
2022-12-16T10:46:14.284Z,77.74
2022-12-16T10:49:00.582Z,78.00
2022-12-16T10:51:48.032Z,78.37
2022-12-16T10:54:53.701Z,78.78
2022-12-16T10:57:56.954Z,78.72
2022-12-16T11:01:01.500Z,79.05
2022-12-16T11:03:59.946Z,79.02
2022-12-16T11:07:01.632Z,79.57
2022-12-16T11:09:53.425Z,79.94
2022-12-16T11:12:44.880Z,80.00
2022-12-16T11:15:54.429Z,79.57
2022-12-16T11:18:41.378Z,79.77
2022-12-16T11:21:34.919Z,79.57
2022-12-16T11:24:32.197Z,79.55
2022-12-16T11:27:21.016Z,79.47
2022-12-16T11:30:20.614Z,79.66
2022-12-16T11:33:09.987Z,79.71
2022-12-16T11:36:02.261Z,80.16
2022-12-16T11:38:54.931Z,79.69
2022-12-16T11:41:47.948Z,79.89
2022-12-16T11:44:39.761Z,79.02
2022-12-16T11:47:34.575Z,78.68
2022-12-16T11:50:21.172Z,78.29
2022-12-16T11:53:15.250Z,77.86
2022-12-16T11:56:16.292Z,78.10
2022-12-16T11:59:05.033Z,77.21
2022-12-16T12:02:01.887Z,77.53
2022-12-16T12:04:50.929Z,78.19
2022-12-16T12:08:15.636Z,78.38
2022-12-16T12:11:30.125Z,77.86
2022-12-16T12:14:43.323Z,78.08
2022-12-16T12:17:53.106Z,78.56
2022-12-16T12:20:54.537Z,77.71
2022-12-16T12:24:00.268Z,77.71
2022-12-16T12:27:14.444Z,78.51
2022-12-16T12:30:33.289Z,78.80
2022-12-16T12:33:50.734Z,78.65
2022-12-16T12:36:47.981Z,78.06
2022-12-16T12:39:41.147Z,77.93
2022-12-16T12:42:49.627Z,78.27
2022-12-16T12:45:48.983Z,78.04
2022-12-16T12:48:43.265Z,78.50
2022-12-16T12:51:36.025Z,79.00
2022-12-16T12:54:33.751Z,79.17
2022-12-16T12:57:24.743Z,79.59
2022-12-16T13:00:18.249Z,79.69
2022-12-16T13:03:19.121Z,79.09
2022-12-16T13:06:26.202Z,79.69
2022-12-16T13:09:16.324Z,79.11
2022-12-16T13:12:50.563Z,78.86
2022-12-16T13:18:59.376Z,79.00
2022-12-16T13:22:07.547Z,78.25
2022-12-16T13:25:03.486Z,78.72
2022-12-16T13:28:05.009Z,79.04
2022-12-16T13:30:59.460Z,78.60
2022-12-16T13:33:53.973Z,79.59
2022-12-16T13:37:07.151Z,79.73
2022-12-16T13:40:22.018Z,80.02
2022-12-16T13:43:24.004Z,80.34
2022-12-16T13:46:34.979Z,79.33
2022-12-16T13:50:11.968Z,79.15
2022-12-16T13:53:03.324Z,79.29
2022-12-16T13:56:13.187Z,79.52
2022-12-16T13:59:02.217Z,79.87
2022-12-16T14:01:58.280Z,79.59
2022-12-16T14:04:57.561Z,79.85
2022-12-16T14:07:46.485Z,78.81
2022-12-16T14:10:43.973Z,79.19
2022-12-16T14:13:39.640Z,79.49
2022-12-16T14:16:46.297Z,78.54
2022-12-16T14:19:42.094Z,79.03
2022-12-16T14:22:47.997Z,79.44
2022-12-16T14:25:36.874Z,79.59
2022-12-16T14:28:36.585Z,79.34
2022-12-16T14:31:30.501Z,79.59
2022-12-16T14:34:25.071Z,79.49
2022-12-16T14:37:10.201Z,79.50
2022-12-16T14:40:08.030Z,79.30
2022-12-16T14:42:58.799Z,79.27
2022-12-16T14:45:48.138Z,79.59
2022-12-16T14:48:49.216Z,79.65
2022-12-16T14:51:42.027Z,80.47
2022-12-16T14:54:41.673Z,80.05
2022-12-16T14:57:41.087Z,80.07
2022-12-16T15:00:41.010Z,79.61
2022-12-16T15:03:50.052Z,79.81
2022-12-16T15:06:47.079Z,80.02
2022-12-16T15:09:44.141Z,80.40
2022-12-16T15:12:35.166Z,80.41
2022-12-16T15:15:23.452Z,80.22
2022-12-16T15:18:19.095Z,80.58
2022-12-16T15:21:09.757Z,79.71
2022-12-16T15:24:01.013Z,79.54
2022-12-16T15:26:49.387Z,79.69
2022-12-16T15:29:49.451Z,79.45
2022-12-16T15:32:47.977Z,79.11
2022-12-16T15:36:00.172Z,79.22
2022-12-16T15:38:49.582Z,79.91
2022-12-16T15:41:49.302Z,79.92
2022-12-16T15:44:42.652Z,80.27
2022-12-16T15:47:39.500Z,80.25
2022-12-16T15:50:25.770Z,80.08
2022-12-16T15:53:11.168Z,80.23
2022-12-16T15:56:07.766Z,79.86
2022-12-16T15:58:57.689Z,79.98
2022-12-16T16:01:45.390Z,80.17
2022-12-16T16:04:41.595Z,79.20
2022-12-16T16:07:33.344Z,79.48
2022-12-16T16:10:35.014Z,79.91
2022-12-16T16:13:22.077Z,79.84
2022-12-16T16:16:09.133Z,79.98
2022-12-16T16:18:54.136Z,80.01
2022-12-16T16:21:39.746Z,79.64
2022-12-16T16:24:26.279Z,79.59
2022-12-16T16:27:21.913Z,79.46
2022-12-16T16:30:14.287Z,79.40
2022-12-16T16:33:15.641Z,79.41
2022-12-16T16:36:02.160Z,79.13
2022-12-16T16:38:50.472Z,79.16
2022-12-16T16:41:43.176Z,78.72
2022-12-16T16:44:28.329Z,79.30
2022-12-16T16:47:18.027Z,79.21
2022-12-16T16:50:08.477Z,78.94
2022-12-16T16:52:56.719Z,79.49
2022-12-16T16:55:43.414Z,79.53
2022-12-16T16:58:37.853Z,79.51
2022-12-16T17:01:24.199Z,79.40
2022-12-16T17:04:14.409Z,79.07
2022-12-16T17:07:05.133Z,79.08
2022-12-16T17:09:52.049Z,79.28
2022-12-16T17:12:53.806Z,78.52
2022-12-16T17:15:43.203Z,78.86
2022-12-16T17:18:31.085Z,79.15
2022-12-16T17:21:21.104Z,79.49
2022-12-16T17:24:06.359Z,78.81
2022-12-16T17:26:58.959Z,79.23
2022-12-16T17:29:47.113Z,79.37
2022-12-16T17:32:38.456Z,79.45
2022-12-16T17:35:24.558Z,79.19
2022-12-16T17:38:11.585Z,79.46
2022-12-16T17:40:57.063Z,79.70
2022-12-16T17:43:45.679Z,78.98
2022-12-16T17:49:45.062Z,79.13
2022-12-16T17:52:42.496Z,79.27
2022-12-16T17:55:29.616Z,79.33
2022-12-16T17:58:17.801Z,79.30
2022-12-16T18:01:06.342Z,79.30
2022-12-16T18:03:51.547Z,79.40
2022-12-16T18:06:45.951Z,79.81
2022-12-16T18:09:37.171Z,79.76
2022-12-16T18:12:33.632Z,79.73
2022-12-16T18:15:18.745Z,80.44
2022-12-16T18:18:10.146Z,80.37
2022-12-16T18:20:57.222Z,80.01
2022-12-16T18:23:44.663Z,79.74
2022-12-16T18:26:35.288Z,80.04
2022-12-16T18:29:21.969Z,79.58
2022-12-16T18:32:10.192Z,79.89
2022-12-16T18:34:55.796Z,79.84
2022-12-16T18:37:42.235Z,79.45
2022-12-16T18:40:33.215Z,79.79
2022-12-16T18:43:21.085Z,79.87
2022-12-16T18:46:11.922Z,79.68
2022-12-16T18:48:58.354Z,79.56
2022-12-16T18:54:54.096Z,79.94
2022-12-16T18:57:45.267Z,79.92
2022-12-16T19:00:33.953Z,80.16
2022-12-16T19:03:20.952Z,80.37
2022-12-16T19:09:24.576Z,79.89
2022-12-16T19:12:10.153Z,80.23
2022-12-16T19:14:55.242Z,80.51
2022-12-16T19:17:41.122Z,80.67
2022-12-16T19:23:38.507Z,79.98
2022-12-16T19:26:24.349Z,80.64
2022-12-16T19:29:12.097Z,81.16
2022-12-16T19:31:57.650Z,81.60
2022-12-16T19:34:46.463Z,81.36
2022-12-16T19:47:07.990Z,81.06
2022-12-16T19:49:56.135Z,81.06
2022-12-16T19:52:45.371Z,81.29
2022-12-16T19:55:32.778Z,81.64
2022-12-16T19:58:18.339Z,81.91
2022-12-16T20:01:06.691Z,81.65
2022-12-16T20:03:56.715Z,81.94
2022-12-16T20:06:45.363Z,81.46
2022-12-16T20:09:42.405Z,81.85
2022-12-16T20:12:27.571Z,82.19
2022-12-16T20:15:18.912Z,81.60
2022-12-16T20:18:07.108Z,81.17
2022-12-16T20:20:57.125Z,81.51
2022-12-16T20:23:50.509Z,81.20
2022-12-16T20:29:46.938Z,81.32
2022-12-16T20:32:32.328Z,81.31
2022-12-16T20:35:17.762Z,81.54
2022-12-16T20:38:05.264Z,81.13
2022-12-16T20:41:02.799Z,81.10
2022-12-16T20:43:51.766Z,80.85
2022-12-16T20:46:43.579Z,81.23
2022-12-16T20:49:29.155Z,80.90
2022-12-16T20:55:17.122Z,80.62
2022-12-16T20:58:42.311Z,80.65
2022-12-16T21:01:29.303Z,80.48
2022-12-16T21:04:17.128Z,80.87
2022-12-16T21:07:02.422Z,80.70
2022-12-16T21:09:47.849Z,80.73
2022-12-16T21:12:35.133Z,80.82
2022-12-16T21:15:36.145Z,80.67
2022-12-16T21:18:37.768Z,80.80
2022-12-16T21:21:23.724Z,80.19
2022-12-16T21:27:11.304Z,80.34
2022-12-16T21:30:07.326Z,79.78
2022-12-16T21:32:53.485Z,80.39
2022-12-16T21:35:40.139Z,79.77
2022-12-16T21:38:40.412Z,79.78
2022-12-16T21:41:26.233Z,79.97
2022-12-16T21:44:26.711Z,79.65
2022-12-16T21:47:14.123Z,79.79
2022-12-16T21:50:05.574Z,80.24
2022-12-16T21:52:52.280Z,80.18
2022-12-16T21:55:47.162Z,80.19
2022-12-16T21:58:35.619Z,80.33
2022-12-16T22:01:21.065Z,80.08
2022-12-16T22:04:06.908Z,80.13
2022-12-16T22:06:52.418Z,80.43
2022-12-16T22:09:39.715Z,80.13
2022-12-16T22:12:25.167Z,80.14
2022-12-16T22:15:10.545Z,80.65
2022-12-16T22:17:58.503Z,80.58
2022-12-16T22:20:45.172Z,80.27
2022-12-16T22:23:30.936Z,80.29
2022-12-16T22:26:18.734Z,80.19
2022-12-16T22:29:04.658Z,79.94
2022-12-16T22:31:50.545Z,80.06
2022-12-16T22:34:36.047Z,80.34
2022-12-16T22:37:21.234Z,80.06
2022-12-16T22:40:06.570Z,80.76
2022-12-16T22:42:53.602Z,80.21
2022-12-16T22:45:41.510Z,80.73
2022-12-16T22:48:26.926Z,80.71
2022-12-16T22:51:14.763Z,80.97
2022-12-16T22:54:00.329Z,80.97
2022-12-16T22:56:45.617Z,80.65
2022-12-16T22:59:32.334Z,80.84
2022-12-16T23:02:17.780Z,81.05
2022-12-16T23:05:06.104Z,81.44
2022-12-16T23:07:51.493Z,81.35
2022-12-16T23:10:37.404Z,81.15
2022-12-16T23:13:25.947Z,81.52
2022-12-16T23:16:12.768Z,81.44
2022-12-16T23:19:09.433Z,81.12
2022-12-16T23:21:55.203Z,80.84
2022-12-16T23:24:41.883Z,80.71
2022-12-16T23:27:27.121Z,80.62
2022-12-16T23:30:12.742Z,80.68
2022-12-16T23:32:59.138Z,80.73
2022-12-16T23:35:44.509Z,81.04
2022-12-16T23:38:29.936Z,81.57
2022-12-16T23:41:18.688Z,81.84
2022-12-16T23:44:04.784Z,81.11
2022-12-16T23:47:04.677Z,81.25
2022-12-16T23:49:52.036Z,81.58
2022-12-16T23:52:37.254Z,81.64
2022-12-16T23:55:22.970Z,81.47
2022-12-16T23:58:16.441Z,81.65
